createdAt,value
2022-09-20T00:01:38.030Z,10.33
2022-09-20T00:04:07.140Z,10.39
2022-09-20T00:06:35.615Z,10.54
2022-09-20T00:09:05.507Z,10.72
2022-09-20T00:11:36.000Z,10.69
2022-09-20T00:14:08.817Z,10.74
2022-09-20T00:16:40.475Z,10.79
2022-09-20T00:19:12.699Z,10.81
2022-09-20T00:21:41.181Z,10.85
2022-09-20T00:24:11.096Z,10.85
2022-09-20T00:26:39.807Z,10.86
2022-09-20T00:29:08.048Z,10.90
2022-09-20T00:31:40.291Z,10.88
2022-09-20T00:34:29.261Z,10.92
2022-09-20T00:36:57.137Z,11.01
2022-09-20T00:39:25.122Z,11.01
2022-09-20T00:41:53.012Z,11.00
2022-09-20T00:44:53.644Z,11.01
2022-09-20T00:47:33.397Z,11.18
2022-09-20T00:50:42.850Z,11.16
2022-09-20T00:53:28.073Z,11.15
2022-09-20T00:56:00.060Z,11.20
2022-09-20T00:58:31.745Z,11.16
2022-09-20T01:01:00.354Z,11.17
2022-09-20T01:03:32.137Z,11.16
2022-09-20T01:06:06.445Z,11.19
2022-09-20T01:08:36.422Z,11.24
2022-09-20T01:11:04.591Z,11.25
2022-09-20T01:13:32.428Z,11.33
2022-09-20T01:16:02.161Z,11.30
2022-09-20T01:18:32.445Z,11.35
2022-09-20T01:21:02.207Z,11.31
2022-09-20T01:24:04.112Z,11.34
2022-09-20T01:26:54.750Z,11.38
2022-09-20T01:29:48.952Z,11.33
2022-09-20T01:32:23.988Z,11.32
2022-09-20T01:34:59.165Z,11.28
2022-09-20T01:38:24.599Z,11.30
2022-09-20T01:41:08.331Z,11.27
2022-09-20T01:44:20.935Z,11.25
2022-09-20T01:47:00.039Z,11.29
2022-09-20T01:49:49.832Z,11.22
2022-09-20T01:52:35.720Z,11.18
2022-09-20T01:55:36.384Z,11.17
2022-09-20T01:58:28.617Z,11.16
2022-09-20T02:01:23.273Z,11.14
2022-09-20T02:04:32.469Z,11.12
2022-09-20T02:07:51.172Z,10.97
2022-09-20T02:10:50.058Z,10.98
2022-09-20T02:13:40.085Z,10.95
2022-09-20T02:16:53.733Z,10.92
2022-09-20T02:19:27.137Z,10.86
2022-09-20T02:22:11.647Z,10.78
2022-09-20T02:25:06.745Z,10.73
2022-09-20T02:27:59.184Z,10.72
2022-09-20T02:31:02.090Z,10.64
2022-09-20T02:34:02.541Z,10.60
2022-09-20T02:37:09.772Z,10.53
2022-09-20T02:39:59.048Z,10.57
2022-09-20T02:42:47.722Z,10.54
2022-09-20T02:45:52.842Z,10.56
2022-09-20T02:48:30.057Z,10.60
2022-09-20T02:51:32.513Z,10.53
2022-09-20T02:54:34.281Z,10.54
2022-09-20T02:57:30.416Z,10.51
2022-09-20T03:00:10.114Z,10.50
2022-09-20T03:02:56.594Z,10.54
2022-09-20T03:06:11.131Z,10.58
2022-09-20T03:08:59.624Z,10.59
2022-09-20T03:12:04.548Z,10.53
2022-09-20T03:14:55.480Z,10.57
2022-09-20T03:17:50.357Z,10.52
2022-09-20T03:20:47.564Z,10.51
2022-09-20T03:24:07.924Z,10.55
2022-09-20T03:26:56.305Z,10.60
2022-09-20T03:29:59.523Z,10.60
2022-09-20T03:32:33.268Z,10.64
2022-09-20T03:35:06.926Z,10.63
2022-09-20T03:37:34.610Z,10.64
2022-09-20T03:40:33.939Z,10.65
2022-09-20T03:43:48.214Z,10.66
2022-09-20T03:46:21.955Z,10.68
2022-09-20T03:49:20.388Z,10.67
2022-09-20T03:52:27.378Z,10.70
2022-09-20T03:55:10.655Z,10.62
2022-09-20T03:58:00.403Z,10.58
2022-09-20T04:00:56.902Z,10.56
2022-09-20T04:03:49.825Z,10.49
2022-09-20T04:06:43.821Z,10.42
2022-09-20T04:09:38.815Z,10.38
2022-09-20T04:12:30.785Z,10.33
2022-09-20T04:15:26.602Z,10.36
2022-09-20T04:18:00.867Z,10.32
2022-09-20T04:20:47.462Z,10.30
2022-09-20T04:23:36.656Z,10.19
2022-09-20T04:26:05.191Z,10.14
2022-09-20T04:28:52.436Z,10.09
2022-09-20T04:31:43.052Z,10.05
2022-09-20T04:34:51.323Z,10.02
2022-09-20T04:37:33.161Z,9.97
2022-09-20T04:40:19.165Z,9.97
2022-09-20T04:43:24.432Z,9.81
2022-09-20T04:45:58.312Z,9.86
2022-09-20T04:49:12.597Z,10.01
2022-09-20T04:52:21.609Z,10.06
2022-09-20T04:54:57.902Z,10.01
2022-09-20T04:57:54.042Z,10.00
2022-09-20T05:00:25.792Z,10.00
2022-09-20T05:03:51.365Z,10.04
2022-09-20T05:06:36.965Z,10.08
2022-09-20T05:09:44.017Z,9.99
2022-09-20T05:12:36.186Z,9.98
2022-09-20T05:15:45.220Z,10.00
2022-09-20T05:18:48.153Z,9.93
2022-09-20T05:21:27.530Z,9.84
2022-09-20T05:24:35.093Z,9.84
2022-09-20T05:27:25.874Z,9.78
2022-09-20T05:30:17.891Z,9.73
2022-09-20T05:33:26.110Z,9.88
2022-09-20T05:36:14.922Z,9.94
2022-09-20T05:38:52.957Z,9.89
2022-09-20T05:41:48.354Z,9.92
2022-09-20T05:44:41.865Z,9.98
2022-09-20T05:47:35.351Z,9.99
2022-09-20T05:50:15.718Z,10.05
2022-09-20T05:53:43.065Z,10.10
2022-09-20T05:56:47.676Z,10.21
2022-09-20T06:00:03.519Z,10.23
2022-09-20T06:03:10.305Z,10.27
2022-09-20T06:05:59.136Z,10.30
2022-09-20T06:09:17.414Z,10.36
2022-09-20T06:12:29.987Z,10.40
2022-09-20T06:15:33.418Z,10.49
2022-09-20T06:18:36.930Z,10.57
2022-09-20T06:21:09.781Z,10.60
2022-09-20T06:23:37.989Z,10.69
2022-09-20T06:26:24.301Z,10.81
2022-09-20T06:28:58.679Z,10.90
2022-09-20T06:31:27.562Z,10.90
2022-09-20T06:34:05.147Z,10.97
2022-09-20T06:36:55.570Z,11.01
2022-09-20T06:40:14.089Z,11.01
2022-09-20T06:42:42.376Z,11.03
2022-09-20T06:45:10.400Z,11.13
2022-09-20T06:47:38.993Z,11.19
2022-09-20T06:50:07.571Z,11.24
2022-09-20T06:52:35.836Z,11.25
2022-09-20T06:55:07.546Z,11.31
2022-09-20T06:57:38.721Z,11.38
2022-09-20T07:00:10.933Z,11.50
2022-09-20T07:02:38.907Z,11.53
2022-09-20T07:05:07.638Z,11.59
2022-09-20T07:07:35.488Z,11.60
2022-09-20T07:10:03.654Z,11.66
2022-09-20T07:12:34.077Z,11.69
2022-09-20T07:15:01.974Z,11.72
2022-09-20T07:17:29.869Z,11.81
2022-09-20T07:19:57.686Z,11.82
2022-09-20T07:22:26.151Z,11.93
2022-09-20T07:24:54.080Z,11.95
2022-09-20T07:27:21.913Z,11.98
2022-09-20T07:29:49.842Z,12.11
2022-09-20T07:32:18.147Z,12.25
2022-09-20T07:34:46.396Z,12.24
2022-09-20T07:37:14.280Z,12.32
2022-09-20T07:39:42.168Z,12.50
2022-09-20T07:42:10.050Z,12.45
2022-09-20T07:44:41.107Z,12.27
2022-09-20T07:47:15.073Z,12.55
2022-09-20T07:49:42.936Z,12.60
2022-09-20T07:52:11.307Z,12.76
2022-09-20T07:54:40.029Z,12.75
2022-09-20T07:57:08.386Z,12.75
2022-09-20T07:59:36.464Z,12.81
2022-09-20T08:02:05.024Z,12.99
2022-09-20T08:04:33.391Z,13.26
2022-09-20T08:07:02.414Z,13.37
2022-09-20T08:09:30.496Z,13.42
2022-09-20T08:11:59.251Z,13.54
2022-09-20T08:14:27.091Z,13.60
2022-09-20T08:17:00.009Z,13.71
2022-09-20T08:19:27.889Z,13.72
2022-09-20T08:21:55.868Z,13.73
2022-09-20T08:24:26.297Z,13.76
2022-09-20T08:26:54.206Z,13.70
2022-09-20T08:29:22.110Z,13.63
2022-09-20T08:31:50.236Z,13.67
2022-09-20T08:34:18.517Z,14.02
2022-09-20T08:36:47.597Z,14.05
2022-09-20T08:42:20.092Z,13.95
2022-09-20T08:45:01.157Z,14.13
2022-09-20T08:47:35.919Z,14.31
2022-09-20T08:50:11.577Z,14.57
2022-09-20T08:52:40.901Z,14.61
2022-09-20T08:55:25.990Z,14.76
2022-09-20T08:57:56.970Z,14.82
2022-09-20T09:00:30.514Z,15.02
2022-09-20T09:03:05.515Z,15.04
2022-09-20T09:05:53.367Z,15.10
2022-09-20T09:08:27.338Z,15.14
2022-09-20T09:10:59.566Z,15.26
2022-09-20T09:13:39.885Z,14.95
2022-09-20T09:16:23.091Z,15.17
2022-09-20T09:18:53.249Z,15.17
2022-09-20T09:21:25.592Z,15.13
2022-09-20T09:24:06.209Z,15.15
2022-09-20T09:26:41.593Z,15.16
2022-09-20T09:29:21.226Z,15.35
2022-09-20T09:31:54.944Z,14.98
2022-09-20T09:34:28.849Z,14.87
2022-09-20T09:36:58.551Z,14.59
2022-09-20T09:39:30.146Z,14.84
2022-09-20T09:42:02.520Z,14.67
2022-09-20T09:44:35.604Z,14.61
2022-09-20T09:47:03.598Z,14.64
2022-09-20T09:49:36.362Z,14.55
2022-09-20T09:52:15.138Z,15.16
2022-09-20T09:54:49.035Z,15.71
2022-09-20T09:57:54.223Z,16.13
2022-09-20T10:00:24.715Z,16.13
2022-09-20T10:03:21.140Z,15.98
2022-09-20T10:05:54.677Z,15.92
2022-09-20T10:08:44.236Z,15.88
2022-09-20T10:11:50.052Z,15.99
2022-09-20T10:15:13.428Z,16.34
2022-09-20T10:17:57.783Z,16.12
2022-09-20T10:20:41.560Z,15.73
2022-09-20T10:23:45.141Z,15.79
2022-09-20T10:26:28.493Z,15.76
2022-09-20T10:29:08.567Z,15.40
2022-09-20T10:32:07.584Z,14.93
2022-09-20T10:35:03.565Z,14.98
2022-09-20T10:38:21.781Z,15.27
2022-09-20T10:41:17.115Z,15.89
2022-09-20T10:44:28.277Z,16.39
2022-09-20T10:47:20.198Z,16.61
2022-09-20T10:50:17.265Z,17.07
2022-09-20T10:53:35.565Z,17.63
2022-09-20T10:56:31.541Z,16.90
2022-09-20T10:59:21.242Z,16.34
2022-09-20T11:02:15.060Z,16.31
2022-09-20T11:05:25.170Z,15.85
2022-09-20T11:08:14.249Z,15.56
2022-09-20T11:10:56.025Z,15.21
2022-09-20T11:14:01.216Z,15.10
2022-09-20T11:16:36.901Z,15.42
2022-09-20T11:19:19.998Z,15.05
2022-09-20T11:22:14.484Z,15.27
2022-09-20T11:25:27.366Z,15.28
2022-09-20T11:28:01.840Z,14.90
2022-09-20T11:30:33.597Z,14.86
2022-09-20T11:33:18.843Z,15.11
2022-09-20T11:35:52.225Z,14.75
2022-09-20T11:38:37.602Z,14.98
2022-09-20T11:41:16.166Z,14.98
2022-09-20T11:43:46.567Z,15.02
2022-09-20T11:46:36.032Z,15.17
2022-09-20T11:49:17.625Z,15.07
2022-09-20T11:51:57.218Z,15.11
2022-09-20T11:54:57.144Z,15.24
2022-09-20T11:57:26.089Z,15.18
2022-09-20T11:59:58.095Z,15.35
2022-09-20T12:02:50.761Z,15.35
2022-09-20T12:05:35.633Z,15.63
2022-09-20T12:08:09.050Z,15.55
2022-09-20T12:10:39.162Z,15.39
2022-09-20T12:13:28.018Z,15.79
2022-09-20T12:16:17.492Z,15.64
2022-09-20T12:18:55.169Z,16.44
2022-09-20T12:21:23.559Z,16.84
2022-09-20T12:23:57.498Z,16.54
2022-09-20T12:26:28.385Z,17.58
2022-09-20T12:29:00.251Z,17.79
2022-09-20T12:31:34.348Z,17.59
2022-09-20T12:34:10.088Z,17.90
2022-09-20T12:37:03.493Z,17.59
2022-09-20T12:39:40.066Z,18.12
2022-09-20T12:42:10.609Z,17.52
2022-09-20T12:44:50.681Z,17.26
2022-09-20T12:47:25.973Z,17.37
2022-09-20T12:50:19.188Z,17.28
2022-09-20T12:52:56.352Z,17.05
2022-09-20T12:55:27.200Z,16.94
2022-09-20T12:58:08.279Z,16.97
2022-09-20T13:00:45.419Z,17.14
2022-09-20T13:03:18.628Z,17.03
2022-09-20T13:05:52.627Z,16.75
2022-09-20T13:09:01.667Z,16.90
2022-09-20T13:11:54.324Z,16.90
2022-09-20T13:14:28.017Z,17.19
2022-09-20T13:17:14.431Z,17.20
2022-09-20T13:19:48.740Z,17.10
2022-09-20T13:22:42.005Z,17.28
2022-09-20T13:25:21.338Z,18.05
2022-09-20T13:28:24.969Z,19.22
2022-09-20T13:31:21.835Z,19.05
2022-09-20T13:33:49.844Z,19.14
2022-09-20T13:36:28.397Z,18.68
2022-09-20T13:38:58.456Z,17.76
2022-09-20T13:41:33.405Z,18.01
2022-09-20T13:44:02.612Z,18.60
2022-09-20T13:46:33.325Z,18.24
2022-09-20T13:49:21.006Z,18.13
2022-09-20T13:51:49.787Z,17.36
2022-09-20T13:54:28.614Z,17.25
2022-09-20T13:57:03.560Z,17.34
2022-09-20T13:59:45.776Z,17.44
2022-09-20T14:02:31.401Z,17.64
2022-09-20T14:05:06.094Z,17.51
2022-09-20T14:07:36.520Z,16.59
2022-09-20T14:10:04.973Z,16.62
2022-09-20T14:12:33.957Z,16.78
2022-09-20T14:15:08.637Z,16.53
2022-09-20T14:17:36.956Z,16.82
2022-09-20T14:20:05.835Z,16.61
2022-09-20T14:22:33.916Z,16.74
2022-09-20T14:25:25.423Z,16.91
2022-09-20T14:28:19.370Z,16.96
2022-09-20T14:30:48.440Z,16.82
2022-09-20T14:33:21.147Z,16.89
2022-09-20T14:35:51.731Z,17.06
2022-09-20T14:38:24.798Z,16.81
2022-09-20T14:40:53.042Z,16.85
2022-09-20T14:43:31.584Z,17.23
2022-09-20T14:46:05.580Z,17.10
2022-09-20T14:48:41.295Z,17.63
2022-09-20T14:51:19.227Z,17.11
2022-09-20T14:53:51.562Z,17.18
2022-09-20T14:56:42.946Z,16.92
2022-09-20T14:59:20.506Z,16.43
2022-09-20T15:02:10.224Z,16.80
2022-09-20T15:04:40.151Z,16.98
2022-09-20T15:07:13.573Z,16.90
2022-09-20T15:09:41.537Z,16.57
2022-09-20T15:12:14.309Z,16.98
2022-09-20T15:14:42.516Z,17.07
2022-09-20T15:17:21.836Z,17.13
2022-09-20T15:19:50.308Z,17.08
2022-09-20T15:22:18.140Z,16.87
2022-09-20T15:24:46.032Z,17.72
2022-09-20T15:27:14.618Z,18.00
2022-09-20T15:29:42.391Z,18.32
2022-09-20T15:32:13.231Z,18.80
2022-09-20T15:34:41.329Z,19.03
2022-09-20T15:37:09.392Z,18.76
2022-09-20T15:39:37.385Z,18.36
2022-09-20T15:42:05.815Z,18.33
2022-09-20T15:44:34.182Z,17.95
2022-09-20T15:47:03.209Z,17.54
2022-09-20T15:49:32.584Z,17.48
2022-09-20T15:52:01.108Z,17.58
2022-09-20T15:54:29.019Z,17.38
2022-09-20T15:56:58.357Z,17.40
2022-09-20T15:59:26.455Z,17.43
2022-09-20T16:01:54.451Z,17.21
2022-09-20T16:04:24.213Z,16.89
2022-09-20T16:06:54.816Z,17.55
2022-09-20T16:09:23.190Z,17.20
2022-09-20T16:11:51.413Z,16.64
2022-09-20T16:14:19.516Z,16.59
2022-09-20T16:16:47.618Z,16.32
2022-09-20T16:19:20.470Z,16.27
2022-09-20T16:21:58.590Z,16.39
2022-09-20T16:24:34.143Z,16.25
2022-09-20T16:27:06.394Z,16.47
2022-09-20T16:29:34.739Z,16.03
2022-09-20T16:32:03.942Z,15.87
2022-09-20T16:34:35.099Z,15.94
2022-09-20T16:37:17.075Z,16.14
2022-09-20T16:39:45.007Z,15.95
2022-09-20T16:42:13.512Z,15.62
2022-09-20T16:44:43.105Z,15.82
2022-09-20T16:47:16.498Z,15.73
2022-09-20T16:49:44.531Z,15.63
2022-09-20T16:52:12.281Z,15.66
2022-09-20T16:54:40.574Z,15.62
2022-09-20T16:57:09.185Z,15.76
2022-09-20T16:59:37.012Z,15.55
2022-09-20T17:02:04.929Z,15.46
2022-09-20T17:04:33.166Z,15.42
2022-09-20T17:07:01.841Z,15.37
2022-09-20T17:09:29.801Z,15.30
2022-09-20T17:11:57.645Z,15.38
2022-09-20T17:14:25.879Z,15.16
2022-09-20T17:16:53.754Z,15.10
2022-09-20T17:19:21.704Z,15.01
2022-09-20T17:21:50.975Z,14.83
2022-09-20T17:24:21.024Z,14.88
2022-09-20T17:26:50.528Z,14.90
2022-09-20T17:29:20.061Z,14.71
2022-09-20T17:31:55.049Z,14.74
2022-09-20T17:34:25.132Z,14.78
2022-09-20T17:36:55.115Z,14.66
2022-09-20T17:39:23.900Z,14.48
2022-09-20T17:41:52.109Z,14.30
2022-09-20T17:44:20.728Z,14.32
2022-09-20T17:46:50.577Z,14.22
2022-09-20T17:49:21.402Z,14.09
2022-09-20T17:51:53.620Z,14.28
2022-09-20T17:54:24.224Z,14.27
2022-09-20T17:56:55.915Z,14.09
2022-09-20T17:59:24.791Z,14.07
2022-09-20T18:01:54.584Z,14.04
2022-09-20T18:04:24.964Z,13.85
2022-09-20T18:06:55.004Z,13.76
2022-09-20T18:09:25.868Z,13.83
2022-09-20T18:11:55.609Z,13.61
2022-09-20T18:14:27.825Z,13.61
2022-09-20T18:17:01.006Z,13.42
2022-09-20T18:19:33.564Z,13.23
2022-09-20T18:22:03.301Z,13.41
2022-09-20T18:24:31.631Z,13.28
2022-09-20T18:27:00.818Z,13.31
2022-09-20T18:29:29.427Z,13.10
2022-09-20T18:31:59.741Z,13.11
2022-09-20T18:34:33.457Z,13.00
2022-09-20T18:37:03.907Z,12.82
2022-09-20T18:39:34.834Z,12.72
2022-09-20T18:42:03.989Z,12.71
2022-09-20T18:44:33.679Z,12.76
2022-09-20T18:47:03.452Z,12.77
2022-09-20T18:49:32.319Z,12.58
2022-09-20T18:52:00.205Z,12.45
2022-09-20T18:54:32.254Z,12.58
2022-09-20T18:57:01.007Z,12.59
2022-09-20T18:59:29.502Z,12.50
2022-09-20T19:02:46.703Z,12.50
2022-09-20T19:05:28.290Z,12.42
2022-09-20T19:08:28.354Z,12.38
2022-09-20T19:11:08.395Z,12.26
2022-09-20T19:13:40.554Z,12.23
2022-09-20T19:16:30.729Z,12.27
2022-09-20T19:19:46.876Z,12.35
2022-09-20T19:22:29.487Z,12.41
2022-09-20T19:25:19.269Z,12.32
2022-09-20T19:27:47.670Z,12.05
2022-09-20T19:30:16.469Z,11.97
2022-09-20T19:32:45.278Z,11.97
2022-09-20T19:35:23.247Z,11.98
2022-09-20T19:38:06.884Z,11.91
2022-09-20T19:40:54.660Z,11.97
2022-09-20T19:43:55.613Z,11.99
2022-09-20T19:46:58.420Z,12.08
2022-09-20T19:50:16.609Z,11.93
2022-09-20T19:52:45.054Z,11.96
2022-09-20T19:55:14.080Z,11.95
2022-09-20T19:57:47.316Z,11.93
2022-09-20T20:00:18.564Z,11.95
2022-09-20T20:02:47.871Z,11.87
2022-09-20T20:05:19.737Z,11.80
2022-09-20T20:08:17.009Z,11.75
2022-09-20T20:11:28.549Z,11.73
2022-09-20T20:14:38.008Z,11.78
2022-09-20T20:17:46.216Z,11.77
2022-09-20T20:20:35.397Z,11.71
2022-09-20T20:23:19.264Z,11.78
2022-09-20T20:26:19.491Z,11.78
2022-09-20T20:28:47.532Z,11.66
2022-09-20T20:31:15.704Z,11.69
2022-09-20T20:33:43.602Z,11.58
2022-09-20T20:36:12.222Z,11.53
2022-09-20T20:38:41.899Z,11.51
2022-09-20T20:41:13.337Z,11.51
2022-09-20T20:43:44.237Z,11.41
2022-09-20T20:46:16.294Z,11.37
2022-09-20T20:48:46.325Z,11.26
2022-09-20T20:51:20.564Z,11.12
2022-09-20T20:53:51.714Z,11.08
2022-09-20T20:56:26.511Z,11.25
2022-09-20T20:59:00.989Z,11.19
2022-09-20T21:01:42.918Z,11.07
2022-09-20T21:04:12.241Z,11.09
2022-09-20T21:06:42.169Z,11.19
2022-09-20T21:09:11.534Z,11.02
2022-09-20T21:11:44.596Z,10.67
2022-09-20T21:14:12.966Z,10.50
2022-09-20T21:16:43.525Z,10.43
2022-09-20T21:19:18.418Z,10.37
2022-09-20T21:21:47.941Z,10.34
2022-09-20T21:24:19.492Z,10.22
2022-09-20T21:26:47.641Z,10.14
2022-09-20T21:29:16.640Z,10.03
2022-09-20T21:31:46.907Z,9.93
2022-09-20T21:34:16.245Z,9.93
